sensor_id;sensor_type;location;lat;lon;timestamp;temperature;humidity
16995;DHT22;8614;48.522;9.206;2023-05-29T00:00:26;12.50;99.90
16995;DHT22;8614;48.522;9.206;2023-05-29T00:02:54;12.50;99.90
16995;DHT22;8614;48.522;9.206;2023-05-29T00:05:21;12.50;99.90
16995;DHT22;8614;48.522;9.206;2023-05-29T00:07:48;12.40;99.90
16995;DHT22;8614;48.522;9.206;2023-05-29T00:10:16;12.40;99.90
16995;DHT22;8614;48.522;9.206;2023-05-29T00:12:43;12.40;99.90
16995;DHT22;8614;48.522;9.206;2023-05-29T00:15:11;12.40;99.90
16995;DHT22;8614;48.522;9.206;2023-05-29T00:17:38;12.30;99.90
16995;DHT22;8614;48.522;9.206;2023-05-29T00:20:06;12.30;99.90
16995;DHT22;8614;48.522;9.206;2023-05-29T00:22:34;12.30;99.90
16995;DHT22;8614;48.522;9.206;2023-05-29T00:25:03;12.30;99.90
16995;DHT22;8614;48.522;9.206;2023-05-29T00:27:30;12.20;99.90
16995;DHT22;8614;48.522;9.206;2023-05-29T00:29:58;12.20;99.90
16995;DHT22;8614;48.522;9.206;2023-05-29T00:32:26;12.20;99.90
16995;DHT22;8614;48.522;9.206;2023-05-29T00:34:53;12.10;99.90
16995;DHT22;8614;48.522;9.206;2023-05-29T00:37:21;12.10;99.90
16995;DHT22;8614;48.522;9.206;2023-05-29T00:39:48;12.10;99.90
16995;DHT22;8614;48.522;9.206;2023-05-29T00:42:15;12.10;99.90
16995;DHT22;8614;48.522;9.206;2023-05-29T00:44:41;12.00;99.90
16995;DHT22;8614;48.522;9.206;2023-05-29T00:47:08;11.90;99.90
16995;DHT22;8614;48.522;9.206;2023-05-29T00:49:37;11.80;99.90
16995;DHT22;8614;48.522;9.206;2023-05-29T00:52:05;11.80;99.90
16995;DHT22;8614;48.522;9.206;2023-05-29T00:54:34;11.70;99.90
16995;DHT22;8614;48.522;9.206;2023-05-29T00:57:02;11.70;99.90
16995;DHT22;8614;48.522;9.206;2023-05-29T00:59:32;11.60;99.90
16995;DHT22;8614;48.522;9.206;2023-05-29T01:02:01;11.60;99.90
16995;DHT22;8614;48.522;9.206;2023-05-29T01:04:29;11.60;99.90
16995;DHT22;8614;48.522;9.206;2023-05-29T01:07:00;11.50;99.90
16995;DHT22;8614;48.522;9.206;2023-05-29T01:09:28;11.50;99.90
16995;DHT22;8614;48.522;9.206;2023-05-29T01:11:59;11.50;99.90
16995;DHT22;8614;48.522;9.206;2023-05-29T01:14:41;11.40;99.90
16995;DHT22;8614;48.522;9.206;2023-05-29T01:17:16;11.40;99.90
16995;DHT22;8614;48.522;9.206;2023-05-29T01:20:03;11.40;99.90
16995;DHT22;8614;48.522;9.206;2023-05-29T01:22:46;11.40;99.90
16995;DHT22;8614;48.522;9.206;2023-05-29T01:25:23;11.40;99.90
16995;DHT22;8614;48.522;9.206;2023-05-29T01:27:52;11.40;99.90
16995;DHT22;8614;48.522;9.206;2023-05-29T01:30:23;11.40;99.90
16995;DHT22;8614;48.522;9.206;2023-05-29T01:32:51;11.30;99.90
16995;DHT22;8614;48.522;9.206;2023-05-29T01:35:18;11.20;99.90
16995;DHT22;8614;48.522;9.206;2023-05-29T01:37:45;11.10;99.90
16995;DHT22;8614;48.522;9.206;2023-05-29T01:40:12;11.10;99.90
16995;DHT22;8614;48.522;9.206;2023-05-29T01:42:39;11.00;99.90
16995;DHT22;8614;48.522;9.206;2023-05-29T01:45:08;11.00;99.90
16995;DHT22;8614;48.522;9.206;2023-05-29T01:47:36;10.90;99.90
16995;DHT22;8614;48.522;9.206;2023-05-29T01:50:04;11.00;99.90
16995;DHT22;8614;48.522;9.206;2023-05-29T01:52:31;10.90;99.90
16995;DHT22;8614;48.522;9.206;2023-05-29T01:54:58;11.00;99.90
16995;DHT22;8614;48.522;9.206;2023-05-29T01:57:25;10.90;99.90
16995;DHT22;8614;48.522;9.206;2023-05-29T01:59:53;10.90;99.90
16995;DHT22;8614;48.522;9.206;2023-05-29T02:02:22;10.90;99.90
16995;DHT22;8614;48.522;9.206;2023-05-29T02:04:49;10.90;99.90
16995;DHT22;8614;48.522;9.206;2023-05-29T02:07:17;10.90;99.90
16995;DHT22;8614;48.522;9.206;2023-05-29T02:09:45;10.80;99.90
16995;DHT22;8614;48.522;9.206;2023-05-29T02:12:11;10.80;99.90
16995;DHT22;8614;48.522;9.206;2023-05-29T02:14:39;10.80;99.90
16995;DHT22;8614;48.522;9.206;2023-05-29T02:17:06;10.80;99.90
16995;DHT22;8614;48.522;9.206;2023-05-29T02:19:36;10.80;99.90
16995;DHT22;8614;48.522;9.206;2023-05-29T02:22:03;10.70;99.90
16995;DHT22;8614;48.522;9.206;2023-05-29T02:24:31;10.70;99.90
16995;DHT22;8614;48.522;9.206;2023-05-29T02:26:59;10.70;99.90
16995;DHT22;8614;48.522;9.206;2023-05-29T02:29:26;10.70;99.90
16995;DHT22;8614;48.522;9.206;2023-05-29T02:31:54;10.70;99.90
16995;DHT22;8614;48.522;9.206;2023-05-29T02:34:20;10.60;99.90
16995;DHT22;8614;48.522;9.206;2023-05-29T02:36:49;10.60;99.90
16995;DHT22;8614;48.522;9.206;2023-05-29T02:39:17;10.60;99.90
16995;DHT22;8614;48.522;9.206;2023-05-29T02:41:44;10.60;99.90
16995;DHT22;8614;48.522;9.206;2023-05-29T02:44:14;10.50;99.90
16995;DHT22;8614;48.522;9.206;2023-05-29T02:46:41;10.50;99.90
16995;DHT22;8614;48.522;9.206;2023-05-29T02:49:08;10.50;99.90
16995;DHT22;8614;48.522;9.206;2023-05-29T02:51:34;10.40;99.90
16995;DHT22;8614;48.522;9.206;2023-05-29T02:54:04;10.40;99.90
16995;DHT22;8614;48.522;9.206;2023-05-29T02:56:31;10.40;99.90
16995;DHT22;8614;48.522;9.206;2023-05-29T02:58:58;10.40;99.90
16995;DHT22;8614;48.522;9.206;2023-05-29T03:01:25;10.40;99.90
16995;DHT22;8614;48.522;9.206;2023-05-29T03:06:08;10.40;99.90
16995;DHT22;8614;48.522;9.206;2023-05-29T03:08:36;10.30;99.90
16995;DHT22;8614;48.522;9.206;2023-05-29T03:11:05;10.30;99.90
16995;DHT22;8614;48.522;9.206;2023-05-29T03:13:32;10.20;99.90
16995;DHT22;8614;48.522;9.206;2023-05-29T03:16:04;10.20;99.90
16995;DHT22;8614;48.522;9.206;2023-05-29T03:18:31;10.20;99.90
16995;DHT22;8614;48.522;9.206;2023-05-29T03:21:00;10.10;99.90
16995;DHT22;8614;48.522;9.206;2023-05-29T03:23:28;10.20;99.90
16995;DHT22;8614;48.522;9.206;2023-05-29T03:25:55;10.10;99.90
16995;DHT22;8614;48.522;9.206;2023-05-29T03:28:23;10.10;99.90
16995;DHT22;8614;48.522;9.206;2023-05-29T03:30:51;10.10;99.90
16995;DHT22;8614;48.522;9.206;2023-05-29T03:33:20;10.20;99.90
16995;DHT22;8614;48.522;9.206;2023-05-29T03:36:08;10.10;99.90
16995;DHT22;8614;48.522;9.206;2023-05-29T03:38:36;10.10;99.90
16995;DHT22;8614;48.522;9.206;2023-05-29T03:41:03;10.10;99.90
16995;DHT22;8614;48.522;9.206;2023-05-29T03:43:30;10.20;99.90
16995;DHT22;8614;48.522;9.206;2023-05-29T03:45:57;10.10;99.90
16995;DHT22;8614;48.522;9.206;2023-05-29T03:48:27;10.10;99.90
16995;DHT22;8614;48.522;9.206;2023-05-29T03:50:53;10.20;99.90
16995;DHT22;8614;48.522;9.206;2023-05-29T03:53:26;10.20;99.90
16995;DHT22;8614;48.522;9.206;2023-05-29T03:55:55;10.20;99.90
16995;DHT22;8614;48.522;9.206;2023-05-29T03:58:22;10.20;99.90
16995;DHT22;8614;48.522;9.206;2023-05-29T04:00:52;10.30;99.90
16995;DHT22;8614;48.522;9.206;2023-05-29T04:03:20;10.30;99.90
16995;DHT22;8614;48.522;9.206;2023-05-29T04:05:47;10.30;99.90
16995;DHT22;8614;48.522;9.206;2023-05-29T04:08:14;10.40;99.90
16995;DHT22;8614;48.522;9.206;2023-05-29T04:10:41;10.40;99.90
16995;DHT22;8614;48.522;9.206;2023-05-29T04:13:10;10.40;99.90
16995;DHT22;8614;48.522;9.206;2023-05-29T04:15:38;10.50;99.90
16995;DHT22;8614;48.522;9.206;2023-05-29T04:18:05;10.50;99.90
16995;DHT22;8614;48.522;9.206;2023-05-29T04:20:32;10.60;99.90
16995;DHT22;8614;48.522;9.206;2023-05-29T04:22:59;10.70;99.90
16995;DHT22;8614;48.522;9.206;2023-05-29T04:25:26;10.70;99.90
16995;DHT22;8614;48.522;9.206;2023-05-29T04:27:53;10.90;99.90
16995;DHT22;8614;48.522;9.206;2023-05-29T04:30:23;11.00;99.90
16995;DHT22;8614;48.522;9.206;2023-05-29T04:32:50;11.00;99.90
16995;DHT22;8614;48.522;9.206;2023-05-29T04:35:17;11.20;99.90
16995;DHT22;8614;48.522;9.206;2023-05-29T04:37:56;11.30;99.90
16995;DHT22;8614;48.522;9.206;2023-05-29T04:40:26;11.40;99.90
16995;DHT22;8614;48.522;9.206;2023-05-29T04:42:53;11.50;99.90
16995;DHT22;8614;48.522;9.206;2023-05-29T04:45:23;11.70;99.90
16995;DHT22;8614;48.522;9.206;2023-05-29T04:47:51;12.00;99.90
16995;DHT22;8614;48.522;9.206;2023-05-29T04:50:21;12.10;99.90
16995;DHT22;8614;48.522;9.206;2023-05-29T04:52:48;12.40;99.90
16995;DHT22;8614;48.522;9.206;2023-05-29T04:55:15;12.70;99.90
16995;DHT22;8614;48.522;9.206;2023-05-29T04:57:43;12.90;99.90
16995;DHT22;8614;48.522;9.206;2023-05-29T05:00:11;13.00;99.90
16995;DHT22;8614;48.522;9.206;2023-05-29T05:02:42;13.20;99.90
16995;DHT22;8614;48.522;9.206;2023-05-29T05:05:10;13.40;99.90
16995;DHT22;8614;48.522;9.206;2023-05-29T05:07:37;13.50;99.90
16995;DHT22;8614;48.522;9.206;2023-05-29T05:10:05;13.60;99.90
16995;DHT22;8614;48.522;9.206;2023-05-29T05:12:33;13.80;99.90
16995;DHT22;8614;48.522;9.206;2023-05-29T05:15:01;13.80;99.90
16995;DHT22;8614;48.522;9.206;2023-05-29T05:17:29;13.90;99.90
16995;DHT22;8614;48.522;9.206;2023-05-29T05:19:57;14.20;99.90
16995;DHT22;8614;48.522;9.206;2023-05-29T05:22:24;14.30;99.90
16995;DHT22;8614;48.522;9.206;2023-05-29T05:24:51;14.50;99.90
16995;DHT22;8614;48.522;9.206;2023-05-29T05:27:20;14.70;99.90
16995;DHT22;8614;48.522;9.206;2023-05-29T05:29:46;14.70;99.90
16995;DHT22;8614;48.522;9.206;2023-05-29T05:32:14;14.80;99.90
16995;DHT22;8614;48.522;9.206;2023-05-29T05:34:41;14.90;99.90
16995;DHT22;8614;48.522;9.206;2023-05-29T05:37:09;15.00;99.90
16995;DHT22;8614;48.522;9.206;2023-05-29T05:39:39;15.10;99.90
16995;DHT22;8614;48.522;9.206;2023-05-29T05:42:06;15.30;99.90
16995;DHT22;8614;48.522;9.206;2023-05-29T05:44:47;15.70;99.90
16995;DHT22;8614;48.522;9.206;2023-05-29T05:47:15;16.40;99.90
16995;DHT22;8614;48.522;9.206;2023-05-29T05:49:41;17.00;99.90
16995;DHT22;8614;48.522;9.206;2023-05-29T05:52:10;17.50;99.90
16995;DHT22;8614;48.522;9.206;2023-05-29T05:54:39;17.90;99.90
16995;DHT22;8614;48.522;9.206;2023-05-29T05:57:05;18.30;99.90
16995;DHT22;8614;48.522;9.206;2023-05-29T05:59:34;18.70;99.90
16995;DHT22;8614;48.522;9.206;2023-05-29T06:02:04;19.10;99.90
16995;DHT22;8614;48.522;9.206;2023-05-29T06:04:30;19.60;99.90
16995;DHT22;8614;48.522;9.206;2023-05-29T06:06:58;19.90;99.90
16995;DHT22;8614;48.522;9.206;2023-05-29T06:09:26;20.20;99.90
16995;DHT22;8614;48.522;9.206;2023-05-29T06:11:55;20.30;99.90
16995;DHT22;8614;48.522;9.206;2023-05-29T06:14:23;20.20;99.90
16995;DHT22;8614;48.522;9.206;2023-05-29T06:16:50;20.00;99.90
16995;DHT22;8614;48.522;9.206;2023-05-29T06:19:17;19.90;99.90
16995;DHT22;8614;48.522;9.206;2023-05-29T06:21:55;20.00;99.90
16995;DHT22;8614;48.522;9.206;2023-05-29T06:24:22;20.20;99.90
16995;DHT22;8614;48.522;9.206;2023-05-29T06:26:50;20.30;99.90
16995;DHT22;8614;48.522;9.206;2023-05-29T06:29:18;20.50;99.90
16995;DHT22;8614;48.522;9.206;2023-05-29T06:31:45;20.90;99.90
16995;DHT22;8614;48.522;9.206;2023-05-29T06:34:12;21.20;99.90
16995;DHT22;8614;48.522;9.206;2023-05-29T06:36:38;21.30;99.90
16995;DHT22;8614;48.522;9.206;2023-05-29T06:39:07;21.60;99.90
16995;DHT22;8614;48.522;9.206;2023-05-29T06:41:33;21.80;99.90
16995;DHT22;8614;48.522;9.206;2023-05-29T06:44:02;21.70;99.90
16995;DHT22;8614;48.522;9.206;2023-05-29T06:46:28;21.50;99.90
16995;DHT22;8614;48.522;9.206;2023-05-29T06:48:56;21.80;99.90
16995;DHT22;8614;48.522;9.206;2023-05-29T06:51:23;21.70;99.90
16995;DHT22;8614;48.522;9.206;2023-05-29T06:53:56;22.00;99.90
16995;DHT22;8614;48.522;9.206;2023-05-29T06:56:24;22.40;99.90
16995;DHT22;8614;48.522;9.206;2023-05-29T06:58:52;22.50;99.90
16995;DHT22;8614;48.522;9.206;2023-05-29T07:01:20;22.70;99.90
16995;DHT22;8614;48.522;9.206;2023-05-29T07:04:13;22.70;99.90
16995;DHT22;8614;48.522;9.206;2023-05-29T07:06:40;23.10;99.90
16995;DHT22;8614;48.522;9.206;2023-05-29T07:09:07;23.00;99.90
16995;DHT22;8614;48.522;9.206;2023-05-29T07:11:34;23.30;99.90
16995;DHT22;8614;48.522;9.206;2023-05-29T07:14:01;23.10;99.90
16995;DHT22;8614;48.522;9.206;2023-05-29T07:16:29;23.00;99.90
16995;DHT22;8614;48.522;9.206;2023-05-29T07:18:59;23.30;99.90
16995;DHT22;8614;48.522;9.206;2023-05-29T07:21:29;23.40;99.90
16995;DHT22;8614;48.522;9.206;2023-05-29T07:23:56;23.40;99.90
16995;DHT22;8614;48.522;9.206;2023-05-29T07:26:23;23.40;99.90
16995;DHT22;8614;48.522;9.206;2023-05-29T07:28:51;23.60;99.90
16995;DHT22;8614;48.522;9.206;2023-05-29T07:31:18;23.90;99.90
16995;DHT22;8614;48.522;9.206;2023-05-29T07:33:48;24.10;99.90
16995;DHT22;8614;48.522;9.206;2023-05-29T07:36:15;24.30;99.90
16995;DHT22;8614;48.522;9.206;2023-05-29T07:38:45;24.00;99.90
16995;DHT22;8614;48.522;9.206;2023-05-29T07:41:15;24.10;99.90
16995;DHT22;8614;48.522;9.206;2023-05-29T07:43:49;24.00;99.90
16995;DHT22;8614;48.522;9.206;2023-05-29T07:46:18;24.30;99.90
16995;DHT22;8614;48.522;9.206;2023-05-29T07:48:49;24.20;99.90
16995;DHT22;8614;48.522;9.206;2023-05-29T07:51:17;24.60;99.90
16995;DHT22;8614;48.522;9.206;2023-05-29T07:53:46;24.70;99.90
16995;DHT22;8614;48.522;9.206;2023-05-29T07:56:14;24.60;99.90
16995;DHT22;8614;48.522;9.206;2023-05-29T07:58:42;24.80;99.90
16995;DHT22;8614;48.522;9.206;2023-05-29T08:01:10;24.60;99.90
16995;DHT22;8614;48.522;9.206;2023-05-29T08:03:36;24.50;99.90
16995;DHT22;8614;48.522;9.206;2023-05-29T08:06:17;24.60;99.90
16995;DHT22;8614;48.522;9.206;2023-05-29T08:08:45;24.80;99.90
16995;DHT22;8614;48.522;9.206;2023-05-29T08:11:12;24.90;99.90
16995;DHT22;8614;48.522;9.206;2023-05-29T08:13:39;24.80;99.90
16995;DHT22;8614;48.522;9.206;2023-05-29T08:16:07;24.90;99.90
16995;DHT22;8614;48.522;9.206;2023-05-29T08:18:33;24.60;99.90
16995;DHT22;8614;48.522;9.206;2023-05-29T08:21:01;24.90;99.90
16995;DHT22;8614;48.522;9.206;2023-05-29T08:23:29;24.80;99.90
16995;DHT22;8614;48.522;9.206;2023-05-29T08:25:57;24.90;99.90
16995;DHT22;8614;48.522;9.206;2023-05-29T08:28:24;24.50;99.90
16995;DHT22;8614;48.522;9.206;2023-05-29T08:30:51;24.70;99.90
16995;DHT22;8614;48.522;9.206;2023-05-29T08:33:18;25.20;99.90
16995;DHT22;8614;48.522;9.206;2023-05-29T08:35:45;25.30;99.90
16995;DHT22;8614;48.522;9.206;2023-05-29T08:38:12;25.20;99.90
16995;DHT22;8614;48.522;9.206;2023-05-29T08:40:40;25.10;99.90
16995;DHT22;8614;48.522;9.206;2023-05-29T08:43:12;25.20;99.90
16995;DHT22;8614;48.522;9.206;2023-05-29T08:45:43;25.40;99.90
16995;DHT22;8614;48.522;9.206;2023-05-29T08:48:11;24.90;99.90
16995;DHT22;8614;48.522;9.206;2023-05-29T08:50:45;24.80;99.90
16995;DHT22;8614;48.522;9.206;2023-05-29T08:53:12;25.30;99.90
16995;DHT22;8614;48.522;9.206;2023-05-29T08:55:41;25.90;99.90
16995;DHT22;8614;48.522;9.206;2023-05-29T08:58:08;25.90;99.90
16995;DHT22;8614;48.522;9.206;2023-05-29T09:00:36;26.40;99.90
16995;DHT22;8614;48.522;9.206;2023-05-29T09:03:03;26.30;99.90
16995;DHT22;8614;48.522;9.206;2023-05-29T09:05:29;26.70;99.90
16995;DHT22;8614;48.522;9.206;2023-05-29T09:07:57;26.40;99.90
16995;DHT22;8614;48.522;9.206;2023-05-29T09:10:24;26.00;99.90
16995;DHT22;8614;48.522;9.206;2023-05-29T09:12:53;26.20;99.90
16995;DHT22;8614;48.522;9.206;2023-05-29T09:15:21;26.70;99.90
16995;DHT22;8614;48.522;9.206;2023-05-29T09:17:51;26.90;99.90
16995;DHT22;8614;48.522;9.206;2023-05-29T09:20:19;27.10;99.90
16995;DHT22;8614;48.522;9.206;2023-05-29T09:22:56;27.40;99.90
16995;DHT22;8614;48.522;9.206;2023-05-29T09:25:24;27.20;99.90
16995;DHT22;8614;48.522;9.206;2023-05-29T09:27:55;27.40;99.90
16995;DHT22;8614;48.522;9.206;2023-05-29T09:30:34;27.60;99.90
16995;DHT22;8614;48.522;9.206;2023-05-29T09:33:02;27.20;99.30
16995;DHT22;8614;48.522;9.206;2023-05-29T09:35:36;27.00;99.90
16995;DHT22;8614;48.522;9.206;2023-05-29T09:38:04;27.20;99.90
16995;DHT22;8614;48.522;9.206;2023-05-29T09:40:31;27.30;99.90
16995;DHT22;8614;48.522;9.206;2023-05-29T09:43:10;27.30;99.30
16995;DHT22;8614;48.522;9.206;2023-05-29T09:45:37;27.10;99.90
16995;DHT22;8614;48.522;9.206;2023-05-29T09:48:06;27.40;99.90
16995;DHT22;8614;48.522;9.206;2023-05-29T09:50:34;27.20;98.40
16995;DHT22;8614;48.522;9.206;2023-05-29T09:53:01;27.10;98.70
16995;DHT22;8614;48.522;9.206;2023-05-29T09:55:29;27.20;99.10
16995;DHT22;8614;48.522;9.206;2023-05-29T09:57:58;27.10;99.60
16995;DHT22;8614;48.522;9.206;2023-05-29T10:00:27;26.90;97.60
16995;DHT22;8614;48.522;9.206;2023-05-29T10:02:54;27.20;99.80
16995;DHT22;8614;48.522;9.206;2023-05-29T10:05:21;27.50;99.90
16995;DHT22;8614;48.522;9.206;2023-05-29T10:07:50;27.80;97.10
16995;DHT22;8614;48.522;9.206;2023-05-29T10:10:20;27.20;97.20
16995;DHT22;8614;48.522;9.206;2023-05-29T10:12:50;26.70;97.60
16995;DHT22;8614;48.522;9.206;2023-05-29T10:15:20;26.90;98.40
16995;DHT22;8614;48.522;9.206;2023-05-29T10:17:57;26.50;96.60
16995;DHT22;8614;48.522;9.206;2023-05-29T10:20:26;26.20;97.50
16995;DHT22;8614;48.522;9.206;2023-05-29T10:22:56;25.70;98.70
16995;DHT22;8614;48.522;9.206;2023-05-29T10:25:24;26.20;99.90
16995;DHT22;8614;48.522;9.206;2023-05-29T10:27:55;26.50;99.50
16995;DHT22;8614;48.522;9.206;2023-05-29T10:30:27;26.40;97.80
16995;DHT22;8614;48.522;9.206;2023-05-29T10:33:08;26.30;98.70
16995;DHT22;8614;48.522;9.206;2023-05-29T10:35:42;26.40;98.20
16995;DHT22;8614;48.522;9.206;2023-05-29T10:38:12;26.30;97.30
16995;DHT22;8614;48.522;9.206;2023-05-29T10:40:40;26.20;97.50
16995;DHT22;8614;48.522;9.206;2023-05-29T10:43:07;26.30;97.40
16995;DHT22;8614;48.522;9.206;2023-05-29T10:45:49;26.20;97.50
16995;DHT22;8614;48.522;9.206;2023-05-29T10:48:43;26.20;97.50
16995;DHT22;8614;48.522;9.206;2023-05-29T10:51:29;26.10;98.70
16995;DHT22;8614;48.522;9.206;2023-05-29T10:53:56;26.20;96.80
16995;DHT22;8614;48.522;9.206;2023-05-29T10:56:28;26.00;97.30
16995;DHT22;8614;48.522;9.206;2023-05-29T10:58:58;25.50;97.40
16995;DHT22;8614;48.522;9.206;2023-05-29T11:01:28;25.40;97.30
16995;DHT22;8614;48.522;9.206;2023-05-29T11:04:25;25.30;97.60
16995;DHT22;8614;48.522;9.206;2023-05-29T11:06:53;25.30;97.60
16995;DHT22;8614;48.522;9.206;2023-05-29T11:09:27;25.50;97.30
16995;DHT22;8614;48.522;9.206;2023-05-29T11:12:17;25.50;97.70
16995;DHT22;8614;48.522;9.206;2023-05-29T11:14:55;25.70;96.90
16995;DHT22;8614;48.522;9.206;2023-05-29T11:17:34;25.80;96.20
16995;DHT22;8614;48.522;9.206;2023-05-29T11:20:17;25.60;97.40
16995;DHT22;8614;48.522;9.206;2023-05-29T11:22:56;25.70;95.60
16995;DHT22;8614;48.522;9.206;2023-05-29T11:25:27;25.50;95.60
16995;DHT22;8614;48.522;9.206;2023-05-29T11:27:54;25.20;96.10
16995;DHT22;8614;48.522;9.206;2023-05-29T11:30:21;25.30;96.10
16995;DHT22;8614;48.522;9.206;2023-05-29T11:32:48;25.40;95.10
16995;DHT22;8614;48.522;9.206;2023-05-29T11:35:21;25.20;96.30
16995;DHT22;8614;48.522;9.206;2023-05-29T11:37:48;25.10;96.50
16995;DHT22;8614;48.522;9.206;2023-05-29T11:40:18;24.90;95.80
16995;DHT22;8614;48.522;9.206;2023-05-29T11:42:46;24.80;97.90
16995;DHT22;8614;48.522;9.206;2023-05-29T11:45:14;25.00;96.60
16995;DHT22;8614;48.522;9.206;2023-05-29T11:48:00;25.00;96.60
16995;DHT22;8614;48.522;9.206;2023-05-29T11:50:31;25.10;95.70
16995;DHT22;8614;48.522;9.206;2023-05-29T11:52:59;24.70;94.30
16995;DHT22;8614;48.522;9.206;2023-05-29T11:55:27;24.80;94.90
16995;DHT22;8614;48.522;9.206;2023-05-29T11:57:56;24.90;94.50
16995;DHT22;8614;48.522;9.206;2023-05-29T12:00:24;24.90;95.20
16995;DHT22;8614;48.522;9.206;2023-05-29T12:02:51;24.80;95.40
16995;DHT22;8614;48.522;9.206;2023-05-29T12:05:18;24.70;94.50
16995;DHT22;8614;48.522;9.206;2023-05-29T12:07:51;24.70;95.00
16995;DHT22;8614;48.522;9.206;2023-05-29T12:10:20;24.60;94.60
16995;DHT22;8614;48.522;9.206;2023-05-29T12:12:47;24.60;94.40
16995;DHT22;8614;48.522;9.206;2023-05-29T12:15:15;24.60;94.50
16995;DHT22;8614;48.522;9.206;2023-05-29T12:17:43;24.80;95.10
16995;DHT22;8614;48.522;9.206;2023-05-29T12:20:11;24.70;94.80
16995;DHT22;8614;48.522;9.206;2023-05-29T12:22:39;24.70;92.60
16995;DHT22;8614;48.522;9.206;2023-05-29T12:25:09;24.60;92.00
16995;DHT22;8614;48.522;9.206;2023-05-29T12:27:38;24.60;92.80
16995;DHT22;8614;48.522;9.206;2023-05-29T12:30:09;24.80;93.50
16995;DHT22;8614;48.522;9.206;2023-05-29T12:32:37;24.80;90.80
16995;DHT22;8614;48.522;9.206;2023-05-29T12:35:15;24.60;90.40
16995;DHT22;8614;48.522;9.206;2023-05-29T12:37:47;24.60;90.80
16995;DHT22;8614;48.522;9.206;2023-05-29T12:40:17;24.60;90.70
16995;DHT22;8614;48.522;9.206;2023-05-29T12:42:46;24.50;90.10
16995;DHT22;8614;48.522;9.206;2023-05-29T12:45:13;24.40;89.90
16995;DHT22;8614;48.522;9.206;2023-05-29T12:47:50;24.30;90.10
16995;DHT22;8614;48.522;9.206;2023-05-29T12:50:24;24.30;91.50
16995;DHT22;8614;48.522;9.206;2023-05-29T12:52:55;24.30;91.80
16995;DHT22;8614;48.522;9.206;2023-05-29T12:55:24;24.40;92.10
16995;DHT22;8614;48.522;9.206;2023-05-29T12:57:51;24.50;89.70
16995;DHT22;8614;48.522;9.206;2023-05-29T13:00:19;24.60;90.20
16995;DHT22;8614;48.522;9.206;2023-05-29T13:02:49;24.60;91.40
16995;DHT22;8614;48.522;9.206;2023-05-29T13:05:16;24.50;92.20
16995;DHT22;8614;48.522;9.206;2023-05-29T13:07:46;24.30;89.10
16995;DHT22;8614;48.522;9.206;2023-05-29T13:10:13;24.30;90.80
16995;DHT22;8614;48.522;9.206;2023-05-29T13:12:41;24.20;89.70
16995;DHT22;8614;48.522;9.206;2023-05-29T13:15:10;24.30;90.50
16995;DHT22;8614;48.522;9.206;2023-05-29T13:17:37;24.30;90.10
16995;DHT22;8614;48.522;9.206;2023-05-29T13:20:08;24.20;89.30
16995;DHT22;8614;48.522;9.206;2023-05-29T13:22:35;24.20;90.90
16995;DHT22;8614;48.522;9.206;2023-05-29T13:25:02;24.30;90.50
16995;DHT22;8614;48.522;9.206;2023-05-29T13:27:32;24.30;90.20
16995;DHT22;8614;48.522;9.206;2023-05-29T13:30:01;24.30;90.40
16995;DHT22;8614;48.522;9.206;2023-05-29T13:32:29;24.30;90.50
16995;DHT22;8614;48.522;9.206;2023-05-29T13:34:56;24.20;90.20
16995;DHT22;8614;48.522;9.206;2023-05-29T13:37:23;24.20;90.60
16995;DHT22;8614;48.522;9.206;2023-05-29T13:39:50;24.30;91.90
16995;DHT22;8614;48.522;9.206;2023-05-29T13:42:18;24.20;90.30
16995;DHT22;8614;48.522;9.206;2023-05-29T13:44:44;24.20;90.10
16995;DHT22;8614;48.522;9.206;2023-05-29T13:47:13;24.30;90.10
16995;DHT22;8614;48.522;9.206;2023-05-29T13:49:40;24.20;89.60
16995;DHT22;8614;48.522;9.206;2023-05-29T13:52:07;24.20;89.70
16995;DHT22;8614;48.522;9.206;2023-05-29T13:54:34;24.30;90.10
16995;DHT22;8614;48.522;9.206;2023-05-29T13:57:01;24.30;90.20
16995;DHT22;8614;48.522;9.206;2023-05-29T13:59:28;24.30;90.50
16995;DHT22;8614;48.522;9.206;2023-05-29T14:01:55;24.10;90.30
16995;DHT22;8614;48.522;9.206;2023-05-29T14:04:23;24.10;90.30
16995;DHT22;8614;48.522;9.206;2023-05-29T14:06:51;24.10;90.10
16995;DHT22;8614;48.522;9.206;2023-05-29T14:09:17;24.10;90.00
16995;DHT22;8614;48.522;9.206;2023-05-29T14:11:52;24.10;90.90
16995;DHT22;8614;48.522;9.206;2023-05-29T14:14:18;24.20;90.50
16995;DHT22;8614;48.522;9.206;2023-05-29T14:16:45;24.10;87.80
16995;DHT22;8614;48.522;9.206;2023-05-29T14:19:12;24.10;88.00
16995;DHT22;8614;48.522;9.206;2023-05-29T14:21:40;24.10;89.90
16995;DHT22;8614;48.522;9.206;2023-05-29T14:24:38;24.00;89.40
16995;DHT22;8614;48.522;9.206;2023-05-29T14:34:35;24.00;90.30
16995;DHT22;8614;48.522;9.206;2023-05-29T14:37:40;24.00;90.10
16995;DHT22;8614;48.522;9.206;2023-05-29T14:47:40;24.00;90.40
16995;DHT22;8614;48.522;9.206;2023-05-29T14:50:20;24.00;90.30
16995;DHT22;8614;48.522;9.206;2023-05-29T15:04:02;24.00;89.40
16995;DHT22;8614;48.522;9.206;2023-05-29T15:10:55;24.00;90.40
16995;DHT22;8614;48.522;9.206;2023-05-29T15:13:41;24.00;90.20
16995;DHT22;8614;48.522;9.206;2023-05-29T15:16:08;24.00;89.70
16995;DHT22;8614;48.522;9.206;2023-05-29T15:18:35;24.00;90.80
16995;DHT22;8614;48.522;9.206;2023-05-29T15:21:03;24.00;90.80
16995;DHT22;8614;48.522;9.206;2023-05-29T15:23:32;23.90;91.30
16995;DHT22;8614;48.522;9.206;2023-05-29T15:25:59;23.90;91.70
16995;DHT22;8614;48.522;9.206;2023-05-29T15:28:27;24.00;91.60
16995;DHT22;8614;48.522;9.206;2023-05-29T15:30:54;23.90;90.70
16995;DHT22;8614;48.522;9.206;2023-05-29T15:33:21;23.90;90.20
16995;DHT22;8614;48.522;9.206;2023-05-29T15:35:48;24.00;90.60
16995;DHT22;8614;48.522;9.206;2023-05-29T15:38:16;23.90;89.90
16995;DHT22;8614;48.522;9.206;2023-05-29T15:40:46;23.90;88.70
16995;DHT22;8614;48.522;9.206;2023-05-29T15:43:53;23.90;88.20
16995;DHT22;8614;48.522;9.206;2023-05-29T15:47:06;23.90;88.10
16995;DHT22;8614;48.522;9.206;2023-05-29T15:50:09;24.00;90.50
16995;DHT22;8614;48.522;9.206;2023-05-29T15:52:52;24.00;89.20
16995;DHT22;8614;48.522;9.206;2023-05-29T15:55:23;23.90;89.90
16995;DHT22;8614;48.522;9.206;2023-05-29T15:58:33;23.90;88.20
16995;DHT22;8614;48.522;9.206;2023-05-29T16:01:11;23.90;89.50
16995;DHT22;8614;48.522;9.206;2023-05-29T16:06:01;23.90;89.00
16995;DHT22;8614;48.522;9.206;2023-05-29T16:14:52;23.80;88.70
16995;DHT22;8614;48.522;9.206;2023-05-29T16:17:20;23.80;86.60
16995;DHT22;8614;48.522;9.206;2023-05-29T16:19:46;23.80;88.20
16995;DHT22;8614;48.522;9.206;2023-05-29T16:22:14;23.80;88.20
16995;DHT22;8614;48.522;9.206;2023-05-29T16:24:41;23.80;85.60
16995;DHT22;8614;48.522;9.206;2023-05-29T16:27:07;23.80;88.60
16995;DHT22;8614;48.522;9.206;2023-05-29T16:29:39;23.80;88.10
16995;DHT22;8614;48.522;9.206;2023-05-29T16:32:08;23.80;88.30
16995;DHT22;8614;48.522;9.206;2023-05-29T16:34:37;23.80;86.60
16995;DHT22;8614;48.522;9.206;2023-05-29T16:37:18;23.70;85.80
16995;DHT22;8614;48.522;9.206;2023-05-29T16:39:45;23.70;86.50
16995;DHT22;8614;48.522;9.206;2023-05-29T16:42:12;23.70;87.70